sensor_id;sensor_type;location;lat;lon;timestamp;pressure;altitude;pressure_sealevel;temperature;humidity
51829;BME280;37881;48.024;8.774;2023-02-28T00:00:49;94140.88;;;-3.83;100.00
51829;BME280;37881;48.024;8.774;2023-02-28T00:03:16;94133.59;;;-3.73;100.00
51829;BME280;37881;48.024;8.774;2023-02-28T00:05:43;94151.25;;;-3.72;100.00
51829;BME280;37881;48.024;8.774;2023-02-28T00:08:10;94139.16;;;-3.87;100.00
51829;BME280;37881;48.024;8.774;2023-02-28T00:10:36;94141.66;;;-3.73;100.00
51829;BME280;37881;48.024;8.774;2023-02-28T00:13:05;94138.19;;;-3.74;100.00
51829;BME280;37881;48.024;8.774;2023-02-28T00:15:33;94142.44;;;-3.73;100.00
51829;BME280;37881;48.024;8.774;2023-02-28T00:18:00;94139.31;;;-3.84;100.00
51829;BME280;37881;48.024;8.774;2023-02-28T00:20:27;94134.22;;;-3.76;100.00
51829;BME280;37881;48.024;8.774;2023-02-28T00:22:54;94130.91;;;-3.73;100.00
51829;BME280;37881;48.024;8.774;2023-02-28T00:25:23;94134.56;;;-3.78;100.00
51829;BME280;37881;48.024;8.774;2023-02-28T00:27:50;94140.59;;;-3.90;100.00
51829;BME280;37881;48.024;8.774;2023-02-28T00:30:22;94139.47;;;-3.89;100.00
51829;BME280;37881;48.024;8.774;2023-02-28T00:32:50;94123.06;;;-3.87;100.00
51829;BME280;37881;48.024;8.774;2023-02-28T00:35:17;94139.00;;;-3.91;100.00
51829;BME280;37881;48.024;8.774;2023-02-28T00:37:43;94139.03;;;-4.43;100.00
51829;BME280;37881;48.024;8.774;2023-02-28T00:40:11;94140.63;;;-4.16;100.00
51829;BME280;37881;48.024;8.774;2023-02-28T00:42:39;94143.00;;;-4.32;100.00
51829;BME280;37881;48.024;8.774;2023-02-28T00:45:07;94138.88;;;-4.12;100.00
51829;BME280;37881;48.024;8.774;2023-02-28T00:47:34;94139.19;;;-4.13;100.00
51829;BME280;37881;48.024;8.774;2023-02-28T00:50:02;94134.16;;;-4.50;100.00
51829;BME280;37881;48.024;8.774;2023-02-28T00:52:29;94134.31;;;-4.11;100.00
51829;BME280;37881;48.024;8.774;2023-02-28T00:54:56;94137.13;;;-4.08;100.00
51829;BME280;37881;48.024;8.774;2023-02-28T00:57:23;94135.69;;;-3.96;100.00
51829;BME280;37881;48.024;8.774;2023-02-28T00:59:50;94143.09;;;-3.93;100.00
51829;BME280;37881;48.024;8.774;2023-02-28T01:02:16;94132.97;;;-3.79;100.00
51829;BME280;37881;48.024;8.774;2023-02-28T01:04:44;94140.41;;;-3.85;100.00
51829;BME280;37881;48.024;8.774;2023-02-28T01:07:11;94130.63;;;-3.89;100.00
51829;BME280;37881;48.024;8.774;2023-02-28T01:09:37;94137.47;;;-4.18;100.00
51829;BME280;37881;48.024;8.774;2023-02-28T01:12:04;94126.41;;;-3.99;100.00
51829;BME280;37881;48.024;8.774;2023-02-28T01:14:31;94123.09;;;-3.96;100.00
51829;BME280;37881;48.024;8.774;2023-02-28T01:16:58;94124.38;;;-4.02;100.00
51829;BME280;37881;48.024;8.774;2023-02-28T01:19:24;94119.47;;;-4.00;100.00
51829;BME280;37881;48.024;8.774;2023-02-28T01:21:51;94116.59;;;-3.86;100.00
51829;BME280;37881;48.024;8.774;2023-02-28T01:24:18;94114.25;;;-3.96;100.00
51829;BME280;37881;48.024;8.774;2023-02-28T01:26:45;94115.50;;;-3.85;100.00
51829;BME280;37881;48.024;8.774;2023-02-28T01:29:12;94120.53;;;-3.84;100.00
51829;BME280;37881;48.024;8.774;2023-02-28T01:31:38;94114.88;;;-3.82;100.00
51829;BME280;37881;48.024;8.774;2023-02-28T01:34:05;94120.38;;;-3.87;100.00
51829;BME280;37881;48.024;8.774;2023-02-28T01:36:32;94125.94;;;-4.01;100.00
51829;BME280;37881;48.024;8.774;2023-02-28T01:38:58;94118.34;;;-3.99;100.00
51829;BME280;37881;48.024;8.774;2023-02-28T01:41:29;94129.53;;;-3.97;100.00
51829;BME280;37881;48.024;8.774;2023-02-28T01:46:35;94119.66;;;-4.14;100.00
51829;BME280;37881;48.024;8.774;2023-02-28T01:49:06;94131.94;;;-4.48;100.00
51829;BME280;37881;48.024;8.774;2023-02-28T01:51:42;94120.88;;;-4.03;100.00
51829;BME280;37881;48.024;8.774;2023-02-28T01:54:21;94123.75;;;-4.25;100.00
51829;BME280;37881;48.024;8.774;2023-02-28T01:57:17;94122.31;;;-4.14;100.00
51829;BME280;37881;48.024;8.774;2023-02-28T01:59:47;94131.59;;;-3.94;100.00
51829;BME280;37881;48.024;8.774;2023-02-28T02:02:17;94127.97;;;-3.98;100.00
51829;BME280;37881;48.024;8.774;2023-02-28T02:04:51;94124.88;;;-4.26;100.00
51829;BME280;37881;48.024;8.774;2023-02-28T02:07:21;94128.63;;;-3.92;100.00
51829;BME280;37881;48.024;8.774;2023-02-28T02:09:48;94128.91;;;-3.85;100.00
51829;BME280;37881;48.024;8.774;2023-02-28T02:17:36;94117.69;;;-3.87;100.00
51829;BME280;37881;48.024;8.774;2023-02-28T02:20:16;94126.25;;;-4.03;100.00
51829;BME280;37881;48.024;8.774;2023-02-28T02:23:06;94128.28;;;-3.99;100.00
51829;BME280;37881;48.024;8.774;2023-02-28T02:25:40;94124.50;;;-3.98;100.00
51829;BME280;37881;48.024;8.774;2023-02-28T02:36:59;94110.97;;;-4.19;100.00
51829;BME280;37881;48.024;8.774;2023-02-28T02:39:52;94111.44;;;-4.09;100.00
51829;BME280;37881;48.024;8.774;2023-02-28T02:42:27;94113.44;;;-3.79;100.00
51829;BME280;37881;48.024;8.774;2023-02-28T02:45:07;94113.19;;;-4.04;100.00
51829;BME280;37881;48.024;8.774;2023-02-28T02:47:37;94110.97;;;-4.19;100.00
51829;BME280;37881;48.024;8.774;2023-02-28T02:50:08;94111.78;;;-4.28;100.00
51829;BME280;37881;48.024;8.774;2023-02-28T02:52:42;94115.09;;;-4.22;100.00
51829;BME280;37881;48.024;8.774;2023-02-28T02:55:12;94110.69;;;-4.35;100.00
51829;BME280;37881;48.024;8.774;2023-02-28T03:00:09;94106.59;;;-4.68;100.00
51829;BME280;37881;48.024;8.774;2023-02-28T03:02:37;94104.34;;;-4.31;100.00
51829;BME280;37881;48.024;8.774;2023-02-28T03:05:12;94093.31;;;-4.12;100.00
51829;BME280;37881;48.024;8.774;2023-02-28T03:07:40;94094.56;;;-4.09;100.00
51829;BME280;37881;48.024;8.774;2023-02-28T03:10:34;94095.00;;;-3.98;100.00
51829;BME280;37881;48.024;8.774;2023-02-28T03:13:37;94094.25;;;-4.08;100.00
51829;BME280;37881;48.024;8.774;2023-02-28T03:24:07;94100.25;;;-4.19;100.00
51829;BME280;37881;48.024;8.774;2023-02-28T03:26:34;94110.97;;;-4.37;100.00
51829;BME280;37881;48.024;8.774;2023-02-28T03:29:16;94092.97;;;-4.02;100.00
51829;BME280;37881;48.024;8.774;2023-02-28T03:31:53;94096.63;;;-4.15;100.00
51829;BME280;37881;48.024;8.774;2023-02-28T03:34:41;94103.72;;;-4.19;100.00
51829;BME280;37881;48.024;8.774;2023-02-28T03:37:16;94103.28;;;-4.56;100.00
51829;BME280;37881;48.024;8.774;2023-02-28T03:39:50;94099.34;;;-4.50;100.00
51829;BME280;37881;48.024;8.774;2023-02-28T03:42:25;94099.97;;;-4.35;100.00
51829;BME280;37881;48.024;8.774;2023-02-28T03:44:57;94098.66;;;-4.21;100.00
51829;BME280;37881;48.024;8.774;2023-02-28T03:47:30;94093.19;;;-4.24;100.00
51829;BME280;37881;48.024;8.774;2023-02-28T03:50:03;94096.34;;;-4.39;100.00
51829;BME280;37881;48.024;8.774;2023-02-28T03:52:35;94090.97;;;-4.22;100.00
51829;BME280;37881;48.024;8.774;2023-02-28T03:55:10;94094.56;;;-4.09;100.00
51829;BME280;37881;48.024;8.774;2023-02-28T03:57:53;94097.22;;;-4.01;100.00
51829;BME280;37881;48.024;8.774;2023-02-28T04:00:41;94097.53;;;-3.93;100.00
51829;BME280;37881;48.024;8.774;2023-02-28T04:03:11;94096.63;;;-4.15;100.00
51829;BME280;37881;48.024;8.774;2023-02-28T04:05:51;94097.72;;;-4.25;100.00
51829;BME280;37881;48.024;8.774;2023-02-28T04:08:19;94094.56;;;-4.09;100.00
51829;BME280;37881;48.024;8.774;2023-02-28T04:10:55;94100.41;;;-4.25;100.00
51829;BME280;37881;48.024;8.774;2023-02-28T04:13:23;94098.84;;;-4.26;100.00
51829;BME280;37881;48.024;8.774;2023-02-28T04:15:50;94104.38;;;-4.57;100.00
51829;BME280;37881;48.024;8.774;2023-02-28T04:18:16;94094.91;;;-4.19;100.00
51829;BME280;37881;48.024;8.774;2023-02-28T04:20:43;94101.81;;;-4.10;100.00
51829;BME280;37881;48.024;8.774;2023-02-28T04:23:10;94095.22;;;-4.12;100.00
51829;BME280;37881;48.024;8.774;2023-02-28T04:25:36;94095.06;;;-4.25;100.00
51829;BME280;37881;48.024;8.774;2023-02-28T04:28:03;94100.72;;;-4.00;100.00
51829;BME280;37881;48.024;8.774;2023-02-28T04:30:30;94102.28;;;-3.99;100.00
51829;BME280;37881;48.024;8.774;2023-02-28T04:32:59;94099.91;;;-4.01;100.00
51829;BME280;37881;48.024;8.774;2023-02-28T04:35:26;94101.03;;;-4.02;100.00
51829;BME280;37881;48.024;8.774;2023-02-28T04:37:53;94106.19;;;-3.96;100.00
51829;BME280;37881;48.024;8.774;2023-02-28T04:40:20;94112.22;;;-4.17;100.00
51829;BME280;37881;48.024;8.774;2023-02-28T04:42:46;94103.38;;;-4.09;100.00
51829;BME280;37881;48.024;8.774;2023-02-28T04:45:13;94099.13;;;-4.01;100.00
51829;BME280;37881;48.024;8.774;2023-02-28T04:47:40;94109.72;;;-4.31;100.00
51829;BME280;37881;48.024;8.774;2023-02-28T04:50:07;94105.75;;;-4.07;100.00
51829;BME280;37881;48.024;8.774;2023-02-28T04:52:34;94103.22;;;-4.04;100.00
51829;BME280;37881;48.024;8.774;2023-02-28T04:55:00;94104.06;;;-4.29;100.00
51829;BME280;37881;48.024;8.774;2023-02-28T04:57:28;94111.59;;;-4.05;100.00
51829;BME280;37881;48.024;8.774;2023-02-28T04:59:54;94100.69;;;-3.91;100.00
51829;BME280;37881;48.024;8.774;2023-02-28T05:02:21;94107.06;;;-4.48;100.00
51829;BME280;37881;48.024;8.774;2023-02-28T05:04:48;94106.72;;;-4.21;100.00
51829;BME280;37881;48.024;8.774;2023-02-28T05:07:14;94113.78;;;-4.07;100.00
51829;BME280;37881;48.024;8.774;2023-02-28T05:09:41;94109.25;;;-4.15;100.00
51829;BME280;37881;48.024;8.774;2023-02-28T05:12:08;94118.72;;;-4.18;100.00
51829;BME280;37881;48.024;8.774;2023-02-28T05:14:35;94117.91;;;-4.10;100.00
51829;BME280;37881;48.024;8.774;2023-02-28T05:17:03;94120.09;;;-4.21;100.00
51829;BME280;37881;48.024;8.774;2023-02-28T05:19:29;94118.84;;;-4.23;100.00
51829;BME280;37881;48.024;8.774;2023-02-28T05:21:56;94119.50;;;-4.17;100.00
51829;BME280;37881;48.024;8.774;2023-02-28T05:24:23;94121.53;;;-4.14;100.00
51829;BME280;37881;48.024;8.774;2023-02-28T05:26:51;94130.81;;;-4.21;100.00
51829;BME280;37881;48.024;8.774;2023-02-28T05:29:19;94127.53;;;-4.35;100.00
51829;BME280;37881;48.024;8.774;2023-02-28T05:31:46;94125.00;;;-4.31;100.00
51829;BME280;37881;48.024;8.774;2023-02-28T05:34:13;94133.34;;;-3.98;100.00
51829;BME280;37881;48.024;8.774;2023-02-28T05:36:42;94135.19;;;-3.81;100.00
51829;BME280;37881;48.024;8.774;2023-02-28T05:39:09;94132.28;;;-4.14;100.00
51829;BME280;37881;48.024;8.774;2023-02-28T05:41:41;94136.50;;;-3.96;100.00
51829;BME280;37881;48.024;8.774;2023-02-28T05:44:08;94132.41;;;-4.02;100.00
51829;BME280;37881;48.024;8.774;2023-02-28T05:46:35;94138.41;;;-4.23;100.00
51829;BME280;37881;48.024;8.774;2023-02-28T05:49:03;94135.41;;;-4.21;100.00
51829;BME280;37881;48.024;8.774;2023-02-28T05:51:30;94134.13;;;-4.15;100.00
51829;BME280;37881;48.024;8.774;2023-02-28T05:54:01;94130.53;;;-4.19;100.00
51829;BME280;37881;48.024;8.774;2023-02-28T05:56:28;94135.25;;;-4.07;100.00
51829;BME280;37881;48.024;8.774;2023-02-28T05:58:55;94134.91;;;-3.97;100.00
51829;BME280;37881;48.024;8.774;2023-02-28T06:01:33;94143.25;;;-3.98;100.00
51829;BME280;37881;48.024;8.774;2023-02-28T06:04:02;94148.63;;;-4.25;100.00
51829;BME280;37881;48.024;8.774;2023-02-28T06:06:29;94144.56;;;-4.39;100.00
51829;BME280;37881;48.024;8.774;2023-02-28T06:09:05;94146.59;;;-4.19;100.00
51829;BME280;37881;48.024;8.774;2023-02-28T06:11:33;94143.94;;;-4.10;100.00
51829;BME280;37881;48.024;8.774;2023-02-28T06:14:00;94148.47;;;-4.11;100.00
51829;BME280;37881;48.024;8.774;2023-02-28T06:16:28;94142.31;;;-4.03;100.00
51829;BME280;37881;48.024;8.774;2023-02-28T06:19:00;94152.56;;;-4.05;100.00
51829;BME280;37881;48.024;8.774;2023-02-28T06:21:28;94154.03;;;-4.16;100.00
51829;BME280;37881;48.024;8.774;2023-02-28T06:23:56;94159.81;;;-4.49;100.00
51829;BME280;37881;48.024;8.774;2023-02-28T06:26:24;94153.53;;;-4.18;100.00
51829;BME280;37881;48.024;8.774;2023-02-28T06:28:51;94150.53;;;-4.08;100.00
51829;BME280;37881;48.024;8.774;2023-02-28T06:31:18;94155.59;;;-4.24;100.00
51829;BME280;37881;48.024;8.774;2023-02-28T06:33:45;94152.13;;;-4.15;100.00
51829;BME280;37881;48.024;8.774;2023-02-28T06:36:13;94169.13;;;-4.11;100.00
51829;BME280;37881;48.024;8.774;2023-02-28T06:38:41;94162.81;;;-4.07;100.00
51829;BME280;37881;48.024;8.774;2023-02-28T06:41:08;94165.50;;;-3.89;100.00
51829;BME280;37881;48.024;8.774;2023-02-28T06:43:37;94169.13;;;-3.85;100.00
51829;BME280;37881;48.024;8.774;2023-02-28T06:46:07;94168.84;;;-4.10;100.00
51829;BME280;37881;48.024;8.774;2023-02-28T06:48:35;94183.63;;;-3.77;100.00
51829;BME280;37881;48.024;8.774;2023-02-28T06:51:07;94176.63;;;-3.61;100.00
51829;BME280;37881;48.024;8.774;2023-02-28T06:53:35;94181.53;;;-3.63;100.00
51829;BME280;37881;48.024;8.774;2023-02-28T06:56:07;94180.16;;;-3.87;100.00
51829;BME280;37881;48.024;8.774;2023-02-28T06:58:34;94175.84;;;-3.62;100.00
51829;BME280;37881;48.024;8.774;2023-02-28T07:01:01;94194.50;;;-3.74;100.00
51829;BME280;37881;48.024;8.774;2023-02-28T07:03:29;94191.47;;;-3.72;100.00
51829;BME280;37881;48.024;8.774;2023-02-28T07:05:58;94190.41;;;-3.80;100.00
51829;BME280;37881;48.024;8.774;2023-02-28T07:08:25;94198.72;;;-3.55;100.00
51829;BME280;37881;48.024;8.774;2023-02-28T07:10:54;94202.50;;;-3.56;100.00
51829;BME280;37881;48.024;8.774;2023-02-28T07:13:22;94196.69;;;-3.11;100.00
51829;BME280;37881;48.024;8.774;2023-02-28T07:15:58;94200.78;;;-3.05;100.00
51829;BME280;37881;48.024;8.774;2023-02-28T07:18:26;94214.16;;;-3.52;100.00
51829;BME280;37881;48.024;8.774;2023-02-28T07:20:53;94203.66;;;-3.66;100.00
51829;BME280;37881;48.024;8.774;2023-02-28T07:23:20;94201.13;;;-3.71;100.00
51829;BME280;37881;48.024;8.774;2023-02-28T07:25:47;94203.16;;;-3.59;100.00
51829;BME280;37881;48.024;8.774;2023-02-28T07:28:15;94204.84;;;-3.37;100.00
51829;BME280;37881;48.024;8.774;2023-02-28T07:30:42;94208.78;;;-3.44;100.00
51829;BME280;37881;48.024;8.774;2023-02-28T07:33:09;94207.44;;;-3.20;100.00
51829;BME280;37881;48.024;8.774;2023-02-28T07:35:35;94208.38;;;-3.16;100.00
51829;BME280;37881;48.024;8.774;2023-02-28T07:38:03;94210.53;;;-3.01;100.00
51829;BME280;37881;48.024;8.774;2023-02-28T07:40:30;94210.00;;;-3.24;100.00
51829;BME280;37881;48.024;8.774;2023-02-28T07:42:59;94204.84;;;-3.46;100.00
51829;BME280;37881;48.024;8.774;2023-02-28T07:45:27;94199.00;;;-3.48;100.00
51829;BME280;37881;48.024;8.774;2023-02-28T07:47:55;94206.97;;;-3.13;100.00
51829;BME280;37881;48.024;8.774;2023-02-28T07:50:22;94204.09;;;-3.08;100.00
51829;BME280;37881;48.024;8.774;2023-02-28T07:52:51;94210.81;;;-3.32;100.00
51829;BME280;37881;48.024;8.774;2023-02-28T07:55:18;94206.19;;;-3.23;100.00
51829;BME280;37881;48.024;8.774;2023-02-28T07:57:45;94210.44;;;-3.13;100.00
51829;BME280;37881;48.024;8.774;2023-02-28T08:00:12;94208.78;;;-2.96;100.00
51829;BME280;37881;48.024;8.774;2023-02-28T08:02:40;94214.00;;;-3.00;100.00
51829;BME280;37881;48.024;8.774;2023-02-28T08:05:07;94202.06;;;-3.11;100.00
51829;BME280;37881;48.024;8.774;2023-02-28T08:07:33;94211.91;;;-3.33;100.00
51829;BME280;37881;48.024;8.774;2023-02-28T08:10:00;94212.56;;;-3.36;100.00
51829;BME280;37881;48.024;8.774;2023-02-28T08:12:27;94210.44;;;-3.86;100.00
51829;BME280;37881;48.024;8.774;2023-02-28T08:14:54;94217.97;;;-3.53;100.00
51829;BME280;37881;48.024;8.774;2023-02-28T08:17:20;94218.41;;;-3.34;100.00
51829;BME280;37881;48.024;8.774;2023-02-28T08:19:47;94223.34;;;-3.53;100.00
51829;BME280;37881;48.024;8.774;2023-02-28T08:22:14;94224.38;;;-3.28;100.00
51829;BME280;37881;48.024;8.774;2023-02-28T08:24:41;94226.22;;;-3.20;100.00
51829;BME280;37881;48.024;8.774;2023-02-28T08:27:09;94211.50;;;-3.05;100.00
51829;BME280;37881;48.024;8.774;2023-02-28T08:29:37;94221.94;;;-3.12;100.00
51829;BME280;37881;48.024;8.774;2023-02-28T08:32:05;94227.94;;;-3.07;100.00
51829;BME280;37881;48.024;8.774;2023-02-28T08:34:45;94229.38;;;-3.09;100.00
51829;BME280;37881;48.024;8.774;2023-02-28T08:37:13;94225.47;;;-2.82;100.00
51829;BME280;37881;48.024;8.774;2023-02-28T08:39:40;94223.22;;;-2.71;100.00
51829;BME280;37881;48.024;8.774;2023-02-28T08:42:07;94236.34;;;-3.17;100.00
51829;BME280;37881;48.024;8.774;2023-02-28T08:44:33;94232.22;;;-2.67;100.00
51829;BME280;37881;48.024;8.774;2023-02-28T08:47:00;94232.22;;;-2.67;100.00
51829;BME280;37881;48.024;8.774;2023-02-28T08:49:27;94231.38;;;-2.59;100.00
51829;BME280;37881;48.024;8.774;2023-02-28T08:51:55;94237.50;;;-2.88;100.00
51829;BME280;37881;48.024;8.774;2023-02-28T08:54:24;94233.34;;;-2.77;100.00
51829;BME280;37881;48.024;8.774;2023-02-28T08:56:50;94239.44;;;-2.29;100.00
51829;BME280;37881;48.024;8.774;2023-02-28T08:59:17;94242.66;;;-2.15;99.59
51829;BME280;37881;48.024;8.774;2023-02-28T09:01:44;94243.22;;;-2.30;99.63
51829;BME280;37881;48.024;8.774;2023-02-28T09:04:10;94239.66;;;-2.43;99.19
51829;BME280;37881;48.024;8.774;2023-02-28T09:06:42;94249.81;;;-3.26;100.00
51829;BME280;37881;48.024;8.774;2023-02-28T09:09:10;94245.19;;;-2.69;100.00
51829;BME280;37881;48.024;8.774;2023-02-28T09:11:37;94251.38;;;-2.48;100.00
51829;BME280;37881;48.024;8.774;2023-02-28T09:14:04;94254.88;;;-2.86;100.00
51829;BME280;37881;48.024;8.774;2023-02-28T09:16:31;94253.50;;;-3.65;100.00
51829;BME280;37881;48.024;8.774;2023-02-28T09:18:59;94249.34;;;-3.28;100.00
51829;BME280;37881;48.024;8.774;2023-02-28T09:21:26;94249.00;;;-3.17;100.00
51829;BME280;37881;48.024;8.774;2023-02-28T09:23:53;94255.34;;;-2.84;100.00
51829;BME280;37881;48.024;8.774;2023-02-28T09:26:23;94251.56;;;-2.53;100.00
51829;BME280;37881;48.024;8.774;2023-02-28T09:28:53;94268.56;;;-2.10;100.00
51829;BME280;37881;48.024;8.774;2023-02-28T09:31:23;94259.97;;;-2.93;100.00
51829;BME280;37881;48.024;8.774;2023-02-28T09:33:52;94258.47;;;-2.43;100.00
51829;BME280;37881;48.024;8.774;2023-02-28T09:36:19;94248.16;;;-2.11;99.72
51829;BME280;37881;48.024;8.774;2023-02-28T09:38:48;94249.84;;;-2.28;98.04
51829;BME280;37881;48.024;8.774;2023-02-28T09:41:20;94253.03;;;-2.64;100.00
51829;BME280;37881;48.024;8.774;2023-02-28T09:43:52;94248.31;;;-2.67;100.00
51829;BME280;37881;48.024;8.774;2023-02-28T09:48:54;94244.53;;;-1.73;99.61
51829;BME280;37881;48.024;8.774;2023-02-28T09:51:30;94257.44;;;-1.46;97.76
51829;BME280;37881;48.024;8.774;2023-02-28T09:53:59;94260.75;;;-1.82;95.72
51829;BME280;37881;48.024;8.774;2023-02-28T09:56:50;94263.59;;;-1.78;95.80
51829;BME280;37881;48.024;8.774;2023-02-28T10:02:51;94262.84;;;-1.46;95.85
51829;BME280;37881;48.024;8.774;2023-02-28T10:05:29;94274.88;;;-2.36;98.55
51829;BME280;37881;48.024;8.774;2023-02-28T10:08:17;94272.75;;;-2.51;99.68
51829;BME280;37881;48.024;8.774;2023-02-28T10:10:51;94276.63;;;-1.89;99.03
51829;BME280;37881;48.024;8.774;2023-02-28T10:14:00;94277.47;;;-1.55;96.94
51829;BME280;37881;48.024;8.774;2023-02-28T10:16:33;94270.44;;;-1.27;95.96
51829;BME280;37881;48.024;8.774;2023-02-28T10:19:06;94277.25;;;-1.29;94.85
51829;BME280;37881;48.024;8.774;2023-02-28T10:21:41;94278.19;;;-1.13;92.33
51829;BME280;37881;48.024;8.774;2023-02-28T10:24:29;94293.81;;;-1.82;96.29
51829;BME280;37881;48.024;8.774;2023-02-28T10:27:06;94287.78;;;-1.99;97.06
51829;BME280;37881;48.024;8.774;2023-02-28T10:29:40;94298.28;;;-1.86;95.19
51829;BME280;37881;48.024;8.774;2023-02-28T10:32:10;94289.94;;;-1.30;92.48
51829;BME280;37881;48.024;8.774;2023-02-28T10:34:37;94282.25;;;-1.07;91.67
51829;BME280;37881;48.024;8.774;2023-02-28T10:37:04;94281.91;;;-1.17;92.01
51829;BME280;37881;48.024;8.774;2023-02-28T10:42:19;94291.25;;;-2.97;100.00
51829;BME280;37881;48.024;8.774;2023-02-28T10:44:46;94291.09;;;-2.24;100.00
51829;BME280;37881;48.024;8.774;2023-02-28T10:47:19;94298.41;;;-2.63;100.00
51829;BME280;37881;48.024;8.774;2023-02-28T10:49:50;94298.13;;;-2.78;100.00
51829;BME280;37881;48.024;8.774;2023-02-28T10:52:39;94306.16;;;-2.31;100.00
51829;BME280;37881;48.024;8.774;2023-02-28T10:55:23;94304.66;;;-1.69;98.31
51829;BME280;37881;48.024;8.774;2023-02-28T10:57:52;94300.19;;;-1.65;96.46
51829;BME280;37881;48.024;8.774;2023-02-28T11:00:23;94321.25;;;-1.88;99.47
51829;BME280;37881;48.024;8.774;2023-02-28T11:02:51;94327.78;;;-1.68;94.55
51829;BME280;37881;48.024;8.774;2023-02-28T11:05:29;94310.22;;;-2.55;97.20
51829;BME280;37881;48.024;8.774;2023-02-28T11:08:07;94310.28;;;-2.34;99.21
51829;BME280;37881;48.024;8.774;2023-02-28T11:10:37;94313.25;;;-1.97;99.00
51829;BME280;37881;48.024;8.774;2023-02-28T11:13:05;94314.63;;;-1.70;96.60
51829;BME280;37881;48.024;8.774;2023-02-28T11:15:34;94317.31;;;-1.28;93.87
51829;BME280;37881;48.024;8.774;2023-02-28T11:18:19;94306.75;;;-1.33;91.56
51829;BME280;37881;48.024;8.774;2023-02-28T11:20:49;94313.31;;;-1.85;94.31
51829;BME280;37881;48.024;8.774;2023-02-28T11:23:18;94319.94;;;-2.42;98.36
51829;BME280;37881;48.024;8.774;2023-02-28T11:25:49;94316.69;;;-2.47;100.00
51829;BME280;37881;48.024;8.774;2023-02-28T11:28:28;94313.25;;;-1.97;96.17
51829;BME280;37881;48.024;8.774;2023-02-28T11:31:17;94309.75;;;-1.97;97.45
51829;BME280;37881;48.024;8.774;2023-02-28T11:36:24;94305.84;;;-1.04;92.86
51829;BME280;37881;48.024;8.774;2023-02-28T11:38:53;94294.63;;;-0.48;89.54
51829;BME280;37881;48.024;8.774;2023-02-28T11:41:34;94289.84;;;-0.88;86.18
51829;BME280;37881;48.024;8.774;2023-02-28T11:52:57;94303.44;;;-0.84;88.43
51829;BME280;37881;48.024;8.774;2023-02-28T11:55:36;94299.13;;;-0.52;86.79
51829;BME280;37881;48.024;8.774;2023-02-28T12:14:30;94298.78;;;-0.01;83.15
51829;BME280;37881;48.024;8.774;2023-02-28T12:22:28;94284.28;;;-0.33;83.34
51829;BME280;37881;48.024;8.774;2023-02-28T12:27:33;94278.69;;;-0.16;80.55
51829;BME280;37881;48.024;8.774;2023-02-28T12:30:13;94287.53;;;-0.03;81.63
51829;BME280;37881;48.024;8.774;2023-02-28T12:32:45;94283.44;;;0.28;80.28
51829;BME280;37881;48.024;8.774;2023-02-28T12:35:17;94289.09;;;0.10;81.52
51829;BME280;37881;48.024;8.774;2023-02-28T12:38:05;94278.88;;;1.00;76.68
51829;BME280;37881;48.024;8.774;2023-02-28T12:43:16;94279.44;;;0.50;77.11
51829;BME280;37881;48.024;8.774;2023-02-28T12:45:49;94263.03;;;-0.10;80.08
51829;BME280;37881;48.024;8.774;2023-02-28T12:48:24;94271.13;;;-0.59;82.75
51829;BME280;37881;48.024;8.774;2023-02-28T12:50:52;94279.38;;;-1.02;88.10
51829;BME280;37881;48.024;8.774;2023-02-28T12:55:49;94270.22;;;-0.64;87.20
51829;BME280;37881;48.024;8.774;2023-02-28T12:58:38;94285.38;;;-0.59;85.29
51829;BME280;37881;48.024;8.774;2023-02-28T13:01:22;94279.53;;;-0.61;84.20
51829;BME280;37881;48.024;8.774;2023-02-28T13:09:11;94289.91;;;-1.84;92.77
51829;BME280;37881;48.024;8.774;2023-02-28T13:16:56;94294.09;;;-0.87;88.33
51829;BME280;37881;48.024;8.774;2023-02-28T13:19:26;94283.56;;;-0.79;87.12
51829;BME280;37881;48.024;8.774;2023-02-28T13:21:54;94291.41;;;-0.87;88.52
51829;BME280;37881;48.024;8.774;2023-02-28T13:29:32;94302.25;;;-1.83;93.95
51829;BME280;37881;48.024;8.774;2023-02-28T13:34:34;94309.53;;;-1.08;85.48
51829;BME280;37881;48.024;8.774;2023-02-28T13:39:50;94300.72;;;-0.26;82.51
51829;BME280;37881;48.024;8.774;2023-02-28T13:50:19;94289.41;;;0.21;79.94
51829;BME280;37881;48.024;8.774;2023-02-28T13:55:46;94290.25;;;-0.15;79.09
51829;BME280;37881;48.024;8.774;2023-02-28T13:58:55;94293.59;;;0.06;79.51
51829;BME280;37881;48.024;8.774;2023-02-28T14:01:37;94289.84;;;0.23;78.81
51829;BME280;37881;48.024;8.774;2023-02-28T14:04:40;94294.75;;;-0.19;77.87
51829;BME280;37881;48.024;8.774;2023-02-28T14:07:17;94294.13;;;0.36;77.27
51829;BME280;37881;48.024;8.774;2023-02-28T14:09:54;94292.72;;;0.02;77.80
51829;BME280;37881;48.024;8.774;2023-02-28T14:12:54;94292.00;;;0.17;78.66
51829;BME280;37881;48.024;8.774;2023-02-28T14:18:10;94287.03;;;0.19;77.21
51829;BME280;37881;48.024;8.774;2023-02-28T14:20:40;94279.53;;;0.13;76.03
51829;BME280;37881;48.024;8.774;2023-02-28T14:29:24;94280.63;;;0.36;75.84
51829;BME280;37881;48.024;8.774;2023-02-28T14:34:53;94292.94;;;-0.28;80.84
51829;BME280;37881;48.024;8.774;2023-02-28T14:37:37;94293.69;;;-0.76;82.10
51829;BME280;37881;48.024;8.774;2023-02-28T14:40:15;94287.03;;;0.19;79.10
51829;BME280;37881;48.024;8.774;2023-02-28T14:42:48;94303.88;;;0.41;76.73
51829;BME280;37881;48.024;8.774;2023-02-28T14:45:22;94292.44;;;0.19;76.49
51829;BME280;37881;48.024;8.774;2023-02-28T14:47:50;94292.50;;;0.48;75.61
51829;BME280;37881;48.024;8.774;2023-02-28T14:50:21;94293.50;;;0.03;77.58
51829;BME280;37881;48.024;8.774;2023-02-28T14:52:54;94300.69;;;-0.02;78.80
51829;BME280;37881;48.024;8.774;2023-02-28T14:55:30;94297.31;;;0.02;78.70
51829;BME280;37881;48.024;8.774;2023-02-28T14:58:00;94295.41;;;-0.23;78.83
51829;BME280;37881;48.024;8.774;2023-02-28T15:00:34;94294.63;;;0.42;77.13
51829;BME280;37881;48.024;8.774;2023-02-28T15:03:18;94294.16;;;0.65;75.99
51829;BME280;37881;48.024;8.774;2023-02-28T15:05:57;94290.44;;;0.16;78.00
51829;BME280;37881;48.024;8.774;2023-02-28T15:08:25;94297.94;;;0.35;76.62
51829;BME280;37881;48.024;8.774;2023-02-28T15:10:59;94285.97;;;0.49;76.28
51829;BME280;37881;48.024;8.774;2023-02-28T15:13:46;94283.34;;;0.12;79.53